Time;durP1;ratioP1;P1;durP2;ratioP2;P2;SDS_P1;SDS_P2;PMS_P1;PMS_P2;Temp;Humidity;BMP_temperature;BMP_pressure;BME280_temperature;BME280_humidity;BME280_pressure;Samples;Min_cycle;Max_cycle;Signal;HPM_P1;HPM_P2
2020/12/05 00:02:04;;;;;;;26.17;17.70;;;;;;;2.56;76.44;101713.98;1715550;82;21600;-44
2020/12/05 00:04:32;;;;;;;29.65;18.67;;;;;;;2.56;76.50;101721.89;1715954;82;21121;-46
2020/12/05 00:06:59;;;;;;;29.57;19.82;;;;;;;2.55;76.49;101725.42;1720605;82;21165;-46
2020/12/05 00:09:27;;;;;;;29.37;18.77;;;;;;;2.56;76.48;101728.03;1714474;82;21129;-45
2020/12/05 00:11:56;;;;;;;28.98;17.37;;;;;;;2.56;76.44;101728.03;1713263;82;21149;-43
2020/12/05 00:14:25;;;;;;;29.10;17.48;;;;;;;2.56;76.43;101729.34;1714622;82;21597;-47
2020/12/05 00:16:53;;;;;;;30.10;18.80;;;;;;;2.55;76.44;101730.69;1709545;82;21149;-43
2020/12/05 00:19:21;;;;;;;30.77;20.00;;;;;;;2.55;76.45;101737.27;1722790;82;21291;-39
2020/12/05 00:21:53;;;;;;;34.63;21.97;;;;;;;2.55;76.50;101736.83;1677735;84;21137;-45
2020/12/05 00:24:21;;;;;;;33.18;18.98;;;;;;;2.58;76.48;101735.94;1673412;84;21133;-41
2020/12/05 00:26:53;;;;;;;37.63;22.10;;;;;;;2.60;76.48;101742.94;1675554;84;21201;-42
2020/12/05 00:29:21;;;;;;;36.13;19.85;;;;;;;2.60;76.46;101740.75;1673400;84;21189;-40
2020/12/05 00:31:52;;;;;;;49.77;27.25;;;;;;;2.60;76.46;101744.26;1676953;84;21169;-41
2020/12/05 00:34:20;;;;;;;54.98;28.80;;;;;;;2.58;76.53;101749.97;1671366;83;21173;-43
2020/12/05 00:36:48;;;;;;;51.48;25.95;;;;;;;2.59;76.41;101748.20;1674720;84;21134;-43
2020/12/05 00:39:16;;;;;;;47.38;28.20;;;;;;;2.56;76.40;101753.05;1666993;84;21178;-39
2020/12/05 00:41:43;;;;;;;56.53;30.65;;;;;;;2.55;76.37;101750.00;1677121;84;21188;-43
2020/12/05 00:44:11;;;;;;;57.65;32.38;;;;;;;2.56;76.31;101749.55;1676862;84;21181;-40
2020/12/05 00:46:41;;;;;;;61.00;30.60;;;;;;;2.56;76.31;101750.86;1666914;84;22159;-40
2020/12/05 00:49:09;;;;;;;54.33;27.07;;;;;;;2.54;76.21;101742.95;1625665;85;21189;-42
2020/12/05 00:51:36;;;;;;;54.38;29.63;;;;;;;2.53;76.22;101746.94;1664125;84;21158;-43
2020/12/05 00:54:04;;;;;;;59.60;30.08;;;;;;;2.52;76.17;101741.22;1672326;84;21136;-42
2020/12/05 00:56:32;;;;;;;58.00;30.10;;;;;;;2.51;76.14;101750.02;1669043;84;21165;-46
2020/12/05 00:59:00;;;;;;;56.13;30.85;;;;;;;2.47;76.05;101749.16;1648053;85;21618;-46
2020/12/05 01:01:27;;;;;;;53.45;28.15;;;;;;;2.43;75.97;101743.47;1648541;85;21168;-43
2020/12/05 01:03:55;;;;;;;59.13;31.37;;;;;;;2.41;76.09;101745.23;1649664;85;21196;-43
2020/12/05 01:06:23;;;;;;;57.27;30.72;;;;;;;2.41;76.05;101744.36;1668200;85;21141;-45
2020/12/05 01:08:50;;;;;;;58.85;31.62;;;;;;;2.40;76.11;101750.08;1654570;85;21595;-45
2020/12/05 01:11:19;;;;;;;63.13;33.45;;;;;;;2.40;76.14;101757.10;1669248;85;21186;-43
2020/12/05 01:13:47;;;;;;;55.00;29.80;;;;;;;2.38;76.11;101753.15;1647774;86;21688;-47
2020/12/05 01:16:16;;;;;;;57.35;27.02;;;;;;;2.38;76.06;101751.39;1667415;84;21164;-46
2020/12/05 01:18:44;;;;;;;54.30;28.20;;;;;;;2.40;76.01;101753.16;1664284;84;21201;-45
2020/12/05 01:21:15;;;;;;;55.50;31.33;;;;;;;2.37;75.88;101756.23;1659617;84;21186;-45
2020/12/05 01:23:43;;;;;;;54.40;28.17;;;;;;;2.35;75.91;101757.12;1664238;84;21653;-46
2020/12/05 01:26:10;;;;;;;52.88;29.98;;;;;;;2.34;75.79;101754.03;1664749;85;21515;-44
2020/12/05 01:28:38;;;;;;;50.80;27.52;;;;;;;2.32;75.77;101756.69;1665552;84;21138;-45
2020/12/05 01:31:06;;;;;;;55.73;28.05;;;;;;;2.33;75.73;101753.61;1675594;84;21151;-48
2020/12/05 01:33:33;;;;;;;49.35;28.05;;;;;;;2.32;75.75;101753.19;1652259;85;21176;-46
2020/12/05 01:36:01;;;;;;;52.73;29.20;;;;;;;2.32;75.80;101747.92;1637675;86;21171;-45
2020/12/05 01:38:28;;;;;;;51.33;29.07;;;;;;;2.30;75.82;101749.69;1663183;84;21150;-45
2020/12/05 01:40:58;;;;;;;44.20;24.60;;;;;;;2.30;75.75;101753.19;1658334;84;21206;-44
2020/12/05 01:43:26;;;;;;;50.55;26.68;;;;;;;2.29;75.82;101745.28;1652237;85;21597;-44
2020/12/05 01:45:55;;;;;;;52.08;26.50;;;;;;;2.27;75.73;101743.98;1654616;84;21149;-47
2020/12/05 01:48:23;;;;;;;52.75;26.30;;;;;;;2.26;75.66;101749.25;1654410;86;21134;-44
2020/12/05 01:50:52;;;;;;;49.35;26.55;;;;;;;2.24;75.59;101745.74;1655144;84;21170;-45
2020/12/05 01:53:19;;;;;;;47.62;24.52;;;;;;;2.22;75.62;101751.45;1618968;86;21162;-44
2020/12/05 01:55:49;;;;;;;41.92;23.62;;;;;;;2.19;75.67;101748.39;1669094;84;21138;-42
2020/12/05 01:58:16;;;;;;;46.85;27.42;;;;;;;2.19;75.72;101749.70;1662131;85;21165;-43
2020/12/05 02:00:44;;;;;;;49.23;26.15;;;;;;;2.19;75.60;101748.39;1662700;84;21173;-44
2020/12/05 02:03:16;;;;;;;49.15;27.05;;;;;;;2.15;75.64;101750.62;1662940;84;21651;-43
2020/12/05 02:06:10;;;;;;;42.05;22.67;;;;;;;2.18;75.74;101745.33;1800045;78;23091;-44
2020/12/05 02:08:49;;;;;;;43.00;24.63;;;;;;;2.17;75.62;101744.91;1775687;80;21141;-43
2020/12/05 02:11:18;;;;;;;45.20;24.90;;;;;;;2.17;75.57;101743.59;1773255;80;21106;-45
2020/12/05 02:13:46;;;;;;;40.90;23.47;;;;;;;2.15;75.51;101744.03;1751106;80;21118;-44
2020/12/05 02:16:15;;;;;;;50.73;27.07;;;;;;;2.15;75.56;101745.35;1716609;81;21148;-42
2020/12/05 02:18:44;;;;;;;50.58;25.65;;;;;;;2.12;75.53;101747.55;1743724;80;21149;-45
2020/12/05 02:21:12;;;;;;;43.92;21.85;;;;;;;2.10;75.53;101752.39;1744722;80;21145;-43
2020/12/05 02:23:46;;;;;;;51.25;25.25;;;;;;;2.12;75.54;101752.81;1688331;83;21122;-42
2020/12/05 02:26:14;;;;;;;48.70;24.80;;;;;;;2.12;75.53;101754.58;1695860;81;21149;-42
2020/12/05 02:28:41;;;;;;;49.70;25.45;;;;;;;2.12;75.53;101756.77;1720220;83;21153;-46
2020/12/05 02:31:09;;;;;;;47.30;27.95;;;;;;;2.13;75.59;101765.09;1723730;81;21149;-46
2020/12/05 02:33:37;;;;;;;47.73;25.52;;;;;;;2.15;75.59;101757.20;1722085;81;21577;-47
2020/12/05 02:36:06;;;;;;;48.55;25.80;;;;;;;2.18;75.63;101762.89;1717446;83;21126;-46
2020/12/05 02:38:51;;;;;;;49.75;23.75;;;;;;;2.20;75.59;101766.39;1723282;81;21180;-45
2020/12/05 02:41:18;;;;;;;42.35;24.60;;;;;;;2.19;75.52;101766.81;1718905;81;21138;-44
2020/12/05 02:43:46;;;;;;;43.50;23.98;;;;;;;2.19;75.42;101762.86;1724673;81;21134;-44
2020/12/05 02:46:14;;;;;;;48.13;25.77;;;;;;;2.21;75.33;101768.13;1707082;82;21167;-42
2020/12/05 02:48:43;;;;;;;35.98;20.68;;;;;;;2.21;75.29;101765.50;1708281;82;21189;-43
2020/12/05 02:51:10;;;;;;;44.88;25.25;;;;;;;2.20;75.29;101760.69;1707842;82;21795;-44
2020/12/05 02:53:37;;;;;;;53.40;29.37;;;;;;;2.21;75.29;101760.23;1709616;82;21153;-45
2020/12/05 02:56:05;;;;;;;56.55;29.67;;;;;;;2.21;75.29;101765.05;1708045;82;21137;-46
2020/12/05 02:58:32;;;;;;;55.52;29.48;;;;;;;2.21;75.30;101768.13;1705727;82;21168;-44
2020/12/05 03:01:00;;;;;;;53.30;27.45;;;;;;;2.21;75.27;101761.55;1705137;83;21161;-44
2020/12/05 03:03:28;;;;;;;53.60;27.07;;;;;;;2.21;75.25;101764.19;1707702;82;21167;-45
2020/12/05 03:05:56;;;;;;;58.65;29.15;;;;;;;2.18;75.41;101759.81;1684087;84;21132;-44
2020/12/05 03:08:24;;;;;;;57.17;30.60;;;;;;;2.19;75.41;101765.50;1682545;84;21173;-44
2020/12/05 03:10:51;;;;;;;52.25;28.57;;;;;;;2.20;75.33;101763.77;1682821;83;21146;-45
2020/12/05 03:13:19;;;;;;;49.73;26.35;;;;;;;2.18;75.29;101770.34;1682326;84;21162;-40
2020/12/05 03:15:46;;;;;;;46.28;26.33;;;;;;;2.18;75.30;101769.02;1682212;83;21130;-45
2020/12/05 03:18:13;;;;;;;55.12;27.15;;;;;;;2.20;75.29;101765.95;1678266;83;21162;-42
2020/12/05 03:20:41;;;;;;;52.05;28.40;;;;;;;2.21;75.27;101770.77;1682369;84;21170;-44
2020/12/05 03:23:08;;;;;;;54.03;29.57;;;;;;;2.19;75.25;101756.28;1683580;84;21154;-41
2020/12/05 03:25:36;;;;;;;58.87;30.40;;;;;;;2.21;75.22;101754.53;1682973;84;21166;-45
2020/12/05 03:28:03;;;;;;;55.48;28.95;;;;;;;2.20;75.16;101751.47;1683308;84;21138;-47
2020/12/05 03:30:31;;;;;;;61.63;29.72;;;;;;;2.18;75.28;101749.73;1682837;84;21193;-43
2020/12/05 03:32:59;;;;;;;53.23;27.65;;;;;;;2.17;75.29;101755.44;1683601;84;21166;-46
2020/12/05 03:35:28;;;;;;;54.85;28.17;;;;;;;2.15;75.33;101756.75;1682445;84;21170;-46
2020/12/05 03:37:56;;;;;;;50.40;29.30;;;;;;;2.15;75.32;101758.52;1682417;84;21213;-43
2020/12/05 03:40:23;;;;;;;45.80;27.17;;;;;;;2.15;75.33;101757.20;1682836;84;21199;-43
2020/12/05 03:42:51;;;;;;;43.30;25.00;;;;;;;2.14;75.25;101752.37;1683658;84;21117;-43
2020/12/05 03:45:19;;;;;;;46.55;24.98;;;;;;;2.13;75.23;101753.69;1682548;83;21679;-43
2020/12/05 03:47:46;;;;;;;47.90;26.25;;;;;;;2.12;75.27;101751.95;1683223;84;21161;-44
2020/12/05 03:50:14;;;;;;;51.30;26.75;;;;;;;2.10;75.22;101749.76;1682652;84;21597;-47
2020/12/05 03:52:41;;;;;;;51.95;26.62;;;;;;;2.10;75.18;101755.89;1681826;84;21181;-48
2020/12/05 03:55:09;;;;;;;48.00;23.25;;;;;;;2.08;75.17;101767.30;1681143;83;21162;-47
2020/12/05 03:57:37;;;;;;;48.13;27.10;;;;;;;2.06;75.22;101763.34;1681224;84;21169;-49
2020/12/05 04:00:04;;;;;;;47.73;27.65;;;;;;;2.07;75.25;101763.80;1681822;83;21185;-43
2020/12/05 04:02:32;;;;;;;59.77;30.12;;;;;;;2.07;75.24;101762.48;1681177;83;21146;-47
2020/12/05 04:05:00;;;;;;;48.13;25.75;;;;;;;2.08;75.26;101768.62;1685251;83;21133;-43
2020/12/05 04:07:28;;;;;;;52.93;27.65;;;;;;;2.05;75.19;101768.19;1733661;81;21122;-42
2020/12/05 04:09:56;;;;;;;53.48;26.12;;;;;;;2.01;75.22;101767.75;1735031;81;21110;-47
2020/12/05 04:12:23;;;;;;;59.33;29.02;;;;;;;1.99;75.36;101766.00;1733745;81;21855;-43
2020/12/05 04:14:51;;;;;;;55.78;29.72;;;;;;;1.98;75.38;101770.84;1734828;81;21185;-45
2020/12/05 04:17:18;;;;;;;54.03;30.40;;;;;;;1.95;75.52;101764.70;1736243;81;21662;-44
2020/12/05 04:19:48;;;;;;;56.95;29.42;;;;;;;1.97;75.57;101770.42;1741562;81;21157;-39
2020/12/05 04:22:15;;;;;;;52.33;26.90;;;;;;;2.00;75.53;101780.48;1735575;81;21974;-43
2020/12/05 04:24:43;;;;;;;50.05;25.85;;;;;;;2.01;75.50;101784.85;1735286;81;21181;-46
2020/12/05 04:27:10;;;;;;;55.48;27.32;;;;;;;2.00;75.52;101784.88;1735129;81;21142;-45
2020/12/05 04:29:38;;;;;;;49.25;25.32;;;;;;;1.99;75.60;101781.38;1733774;81;21153;-48
2020/12/05 04:32:05;;;;;;;56.58;27.32;;;;;;;2.00;75.67;101783.11;1735414;81;21165;-47
2020/12/05 04:34:33;;;;;;;51.75;26.73;;;;;;;2.00;75.77;101773.03;1729507;81;21118;-45
2020/12/05 04:37:00;;;;;;;51.58;25.92;;;;;;;2.01;75.74;101773.45;1737767;81;21570;-50
2020/12/05 04:39:28;;;;;;;50.67;26.02;;;;;;;2.00;75.81;101775.22;1735137;81;22018;-45
2020/12/05 04:41:55;;;;;;;47.90;25.08;;;;;;;2.00;75.83;101774.35;1731493;81;21122;-47
2020/12/05 04:44:23;;;;;;;50.35;26.37;;;;;;;2.00;75.85;101775.22;1733613;81;22019;-45
2020/12/05 04:46:50;;;;;;;43.05;21.85;;;;;;;2.01;75.95;101779.59;1739070;81;21625;-44
2020/12/05 04:49:18;;;;;;;49.45;27.02;;;;;;;2.01;76.02;101775.64;1735628;81;21142;-46
2020/12/05 04:51:48;;;;;;;49.70;26.85;;;;;;;2.01;76.05;101781.35;1735145;81;21110;-46
2020/12/05 04:54:15;;;;;;;41.00;22.27;;;;;;;2.02;76.05;101777.86;1736542;81;21555;-45
2020/12/05 04:56:43;;;;;;;32.28;19.95;;;;;;;2.01;76.21;101781.35;1690440;82;21146;-44
2020/12/05 04:59:11;;;;;;;28.52;17.07;;;;;;;2.03;76.13;101780.92;1739300;81;21154;-47
2020/12/05 05:01:38;;;;;;;25.20;15.60;;;;;;;2.03;76.18;101781.78;1736437;81;21133;-43
2020/12/05 05:04:06;;;;;;;25.65;15.83;;;;;;;2.05;76.15;101787.06;1738264;81;21142;-44
2020/12/05 05:06:34;;;;;;;35.15;18.37;;;;;;;2.03;76.14;101789.67;1738635;81;21174;-44
2020/12/05 05:09:01;;;;;;;24.85;17.37;;;;;;;2.00;76.20;101788.83;1734813;81;21158;-43
2020/12/05 05:11:30;;;;;;;24.10;15.43;;;;;;;1.99;76.27;101789.69;1732876;81;21462;-42
2020/12/05 05:14:02;;;;;;;23.62;15.72;;;;;;;1.97;76.27;101784.45;1736419;81;21118;-45
2020/12/05 05:16:29;;;;;;;;;;;;;;;1.98;76.36;101792.77;1734663;81;21184;-44
2020/12/05 05:18:59;;;;;;;24.52;16.90;;;;;;;2.00;76.36;101791.01;1737338;81;20154;-42
2020/12/05 05:21:39;;;;;;;23.87;15.98;;;;;;;2.00;76.43;101791.45;1710108;81;21293;-43
2020/12/05 05:24:13;;;;;;;27.37;17.35;;;;;;;2.00;76.44;101792.33;1730825;81;21142;-41
2020/12/05 05:27:06;;;;;;;27.67;15.35;;;;;;;2.03;76.42;101794.94;1757465;79;23096;-38
2020/12/05 05:29:38;;;;;;;30.65;18.30;;;;;;;1.95;76.48;101792.33;1731773;80;21644;-41
2020/12/05 05:32:16;;;;;;;29.18;18.32;;;;;;;1.97;76.45;101800.23;1734056;82;21138;-44
2020/12/05 05:34:41;;;;;;;28.85;16.23;;;;;;;1.98;76.46;101806.37;1739556;80;21094;-45
2020/12/05 05:37:16;;;;;;;26.15;16.15;;;;;;;1.98;76.56;101813.81;1732173;80;21141;-45
2020/12/05 05:39:49;;;;;;;26.95;17.40;;;;;;;2.00;76.53;101804.17;1732982;80;21160;-40
2020/12/05 05:42:38;;;;;;;27.42;17.65;;;;;;;2.00;76.55;101805.93;1742524;80;21145;-42
2020/12/05 05:45:25;;;;;;;31.42;19.37;;;;;;;1.98;76.63;101810.31;1728576;82;21232;-43
2020/12/05 05:48:03;;;;;;;24.85;16.50;;;;;;;2.03;76.63;101799.34;1804491;78;23253;-43
2020/12/05 05:50:35;;;;;;;33.90;17.37;;;;;;;1.98;76.67;101801.10;1776032;79;21147;-41
2020/12/05 05:53:11;;;;;;;33.88;17.62;;;;;;;1.96;76.70;101805.05;1778599;80;21145;-41
2020/12/05 05:55:49;;;;;;;28.87;17.55;;;;;;;1.94;76.75;101794.95;1782137;80;21149;-41
2020/12/05 05:58:21;;;;;;;30.70;16.97;;;;;;;1.94;76.78;101796.27;1743308;81;21148;-43
2020/12/05 06:00:50;;;;;;;29.00;17.35;;;;;;;1.97;76.87;101805.95;1728441;82;21169;-43
2020/12/05 06:03:24;;;;;;;36.50;19.42;;;;;;;1.96;76.93;101806.36;1726844;82;21178;-43
2020/12/05 06:05:58;;;;;;;31.68;18.57;;;;;;;1.95;76.96;101809.87;1723024;81;21161;-40
2020/12/05 06:08:27;;;;;;;32.23;18.10;;;;;;;1.93;77.01;101812.50;1722107;81;21137;-40
2020/12/05 06:10:58;;;;;;;36.20;18.45;;;;;;;1.92;77.02;101809.45;1716080;82;21142;-42
2020/12/05 06:13:28;;;;;;;31.75;17.45;;;;;;;1.92;77.08;101810.77;1748861;81;21177;-42
2020/12/05 06:15:57;;;;;;;31.07;17.75;;;;;;;1.93;77.12;101816.45;1723815;82;21566;-41
2020/12/05 06:18:25;;;;;;;34.65;19.50;;;;;;;1.95;77.20;101813.37;1747841;81;21134;-42
2020/12/05 06:20:53;;;;;;;37.38;18.95;;;;;;;1.99;77.19;101810.33;1726580;82;22048;-41
2020/12/05 06:23:41;;;;;;;39.65;20.85;;;;;;;2.00;77.21;101808.11;1727493;82;21157;-41
2020/12/05 06:26:10;;;;;;;32.48;16.97;;;;;;;2.00;77.25;101811.20;1701235;82;21201;-43
2020/12/05 06:28:39;;;;;;;33.13;19.35;;;;;;;2.01;77.26;101809.85;1696750;82;21161;-43
2020/12/05 06:31:06;;;;;;;34.53;18.77;;;;;;;1.99;77.30;101818.22;1697806;82;21185;-44
2020/12/05 06:33:44;;;;;;;35.55;19.10;;;;;;;1.98;77.37;101818.20;1743897;81;21202;-39
2020/12/05 06:36:32;;;;;;;31.93;18.10;;;;;;;1.98;77.41;101824.78;1748579;81;21195;-49
2020/12/05 06:39:16;;;;;;;30.77;18.48;;;;;;;1.98;77.41;101828.73;1725607;81;21156;-44
2020/12/05 06:41:52;;;;;;;33.10;18.45;;;;;;;1.99;77.46;101830.47;1714383;83;21649;-40
2020/12/05 06:44:34;;;;;;;37.63;19.73;;;;;;;1.99;77.42;101832.69;1746604;81;21173;-42
2020/12/05 06:47:07;;;;;;;31.73;17.00;;;;;;;1.98;77.37;101837.94;1711904;81;21150;-41
2020/12/05 06:49:44;;;;;;;30.57;17.17;;;;;;;1.95;77.37;101838.38;1706052;82;21534;-42
2020/12/05 06:52:30;;;;;;;37.58;18.40;;;;;;;1.94;77.42;101838.37;1690592;83;21136;-44
2020/12/05 06:55:09;;;;;;;36.93;20.75;;;;;;;1.92;77.52;101841.47;1746594;80;21928;-41
2020/12/05 06:57:38;;;;;;;30.95;16.77;;;;;;;1.92;77.54;101836.20;1747473;80;21101;-43
2020/12/05 07:00:24;;;;;;;35.08;18.30;;;;;;;1.93;77.60;101845.39;1743879;80;21158;-42
2020/12/05 07:02:56;;;;;;;27.00;15.93;;;;;;;1.94;77.53;101846.26;1749659;82;21457;-45
2020/12/05 07:05:32;;;;;;;34.48;17.90;;;;;;;1.92;77.65;101852.86;1743557;80;21300;-42
2020/12/05 07:08:38;;;;;;;34.73;18.70;;;;;;;1.93;77.70;101851.97;1743362;80;21130;-49
2020/12/05 07:11:14;;;;;;;30.65;17.37;;;;;;;1.94;77.66;101855.05;1749690;80;21145;-41
2020/12/05 07:13:47;;;;;;;34.73;18.82;;;;;;;1.94;77.70;101856.38;1747472;80;21589;-43
2020/12/05 07:16:27;;;;;;;31.77;18.48;;;;;;;1.96;77.80;101865.56;1748002;81;21506;-42
2020/12/05 07:18:59;;;;;;;33.55;18.98;;;;;;;1.95;77.72;101869.95;1741148;81;21633;-43
2020/12/05 07:21:29;;;;;;;28.77;17.60;;;;;;;1.94;77.70;101872.16;1739696;80;21564;-41
2020/12/05 07:23:57;;;;;;;32.70;19.37;;;;;;;1.94;77.75;101874.79;1743423;80;21165;-42
2020/12/05 07:26:25;;;;;;;31.12;17.82;;;;;;;1.97;77.78;101885.75;1745230;80;21146;-42
2020/12/05 07:28:53;;;;;;;33.25;19.50;;;;;;;1.97;77.79;101880.49;1743352;80;22007;-40
2020/12/05 07:31:21;;;;;;;35.80;18.52;;;;;;;2.00;77.75;101879.16;1747821;80;21955;-40
2020/12/05 07:33:49;;;;;;;34.63;16.97;;;;;;;1.98;77.73;101886.63;1745075;81;21569;-40
2020/12/05 07:36:28;;;;;;;29.32;17.10;;;;;;;1.98;77.67;101894.52;1744411;80;21173;-43
2020/12/05 07:39:26;;;;;;;41.05;20.20;;;;;;;1.97;77.67;101893.64;1749717;81;21145;-41
2020/12/05 07:41:57;;;;;;;30.72;16.87;;;;;;;1.95;77.66;101888.38;1748057;81;21110;-40
2020/12/05 07:44:26;;;;;;;41.50;18.02;;;;;;;1.95;77.67;101891.00;1744149;80;21774;-40
2020/12/05 07:46:54;;;;;;;38.63;18.35;;;;;;;1.95;77.69;101888.38;1746290;80;21165;-41
2020/12/05 07:49:22;;;;;;;32.83;17.87;;;;;;;1.94;77.73;101893.21;1746066;80;21260;-39
2020/12/05 07:51:51;;;;;;;36.00;18.52;;;;;;;1.93;77.75;101891.88;1750143;80;21145;-46
2020/12/05 07:54:19;;;;;;;35.80;17.98;;;;;;;1.92;77.75;101901.98;1746027;80;21444;-39
2020/12/05 07:56:47;;;;;;;28.60;16.52;;;;;;;1.92;77.78;101900.67;1749972;80;21115;-43
2020/12/05 07:59:15;;;;;;;30.97;17.37;;;;;;;1.90;77.78;101898.02;1755146;80;21137;-39
2020/12/05 08:02:09;;;;;;;30.12;17.90;;;;;;;1.89;77.81;101888.39;1665056;84;21175;-42
2020/12/05 08:04:52;;;;;;;29.55;18.40;;;;;;;1.92;77.83;101892.77;1666622;84;21330;-45
2020/12/05 08:07:42;;;;;;;34.25;18.90;;;;;;;1.94;77.89;101897.57;1746552;80;21161;-40
2020/12/05 08:10:12;;;;;;;30.12;17.27;;;;;;;1.96;77.96;101903.72;1745167;80;21530;-44
2020/12/05 08:12:54;;;;;;;34.50;18.85;;;;;;;1.97;77.93;101901.55;1718083;82;21125;-40
2020/12/05 08:15:21;;;;;;;38.00;19.37;;;;;;;1.98;78.01;101907.23;1747122;80;21581;-44
2020/12/05 08:17:49;;;;;;;29.15;16.05;;;;;;;2.01;77.99;101914.25;1745100;80;21616;-43
2020/12/05 08:21:07;;;;;;;;;;;;;;;;;;;;;
2020/12/05 08:24:27;;;;;;;31.25;15.25;;;;;;;2.12;77.85;101915.13;1764833;79;28873;-39
2020/12/05 08:26:56;;;;;;;34.85;18.25;;;;;;;2.09;77.68;101926.54;1746154;80;21226;-39
2020/12/05 08:29:25;;;;;;;29.40;15.58;;;;;;;2.08;77.65;101928.72;1729876;80;21162;-43
2020/12/05 08:31:54;;;;;;;28.98;17.32;;;;;;;2.08;77.60;101922.13;1715413;81;21187;-42
2020/12/05 08:34:31;;;;;;;33.70;16.82;;;;;;;2.08;77.58;101923.45;1728276;80;21810;-40
2020/12/05 08:37:01;;;;;;;34.25;17.75;;;;;;;2.08;77.66;101923.89;1740051;80;21283;-43
2020/12/05 08:39:31;;;;;;;34.30;17.23;;;;;;;2.07;77.67;101929.61;1742586;80;21172;-39
2020/12/05 08:41:58;;;;;;;31.62;17.32;;;;;;;2.08;77.70;101928.72;1729502;80;21178;-41
2020/12/05 08:44:29;;;;;;;31.40;18.73;;;;;;;2.11;77.77;101927.83;1742433;80;21143;-43
2020/12/05 08:47:07;;;;;;;33.83;18.73;;;;;;;2.14;77.78;101919.92;1683904;83;21158;-41
2020/12/05 08:49:43;;;;;;;31.93;18.12;;;;;;;2.14;77.75;101930.05;1684794;83;21610;-41
2020/12/05 08:52:11;;;;;;;29.52;15.95;;;;;;;2.18;77.76;101930.03;1683515;83;21896;-41
2020/12/05 08:54:47;;;;;;;30.85;17.55;;;;;;;2.22;77.81;101933.08;1675582;83;21181;-40
2020/12/05 08:57:15;;;;;;;29.85;17.23;;;;;;;2.24;77.76;101932.64;1729047;80;21154;-42
2020/12/05 08:59:43;;;;;;;37.88;20.30;;;;;;;2.22;77.69;101930.03;1735072;80;21179;-40
2020/12/05 09:02:11;;;;;;;35.28;18.95;;;;;;;2.24;77.69;101931.33;1666510;83;21174;-45
2020/12/05 09:04:39;;;;;;;29.30;15.18;;;;;;;2.23;77.74;101924.33;1692172;82;21666;-41
2020/12/05 09:07:14;;;;;;;39.85;18.67;;;;;;;2.26;77.69;101928.27;1670988;82;21625;-43
2020/12/05 09:09:44;;;;;;;29.72;18.12;;;;;;;2.26;77.72;101928.27;1662585;85;21222;-42
2020/12/05 09:12:17;;;;;;;35.80;18.55;;;;;;;2.27;77.76;101930.00;1689726;83;21638;-41
2020/12/05 09:14:50;;;;;;;33.50;20.05;;;;;;;2.26;77.76;101925.63;1734392;80;21550;-41
2020/12/05 09:17:24;;;;;;;33.38;17.50;;;;;;;2.29;77.85;101924.30;1747753;80;21150;-43
2020/12/05 09:19:58;;;;;;;32.23;18.20;;;;;;;2.31;77.83;101922.11;1727173;81;21731;-45
2020/12/05 09:22:33;;;;;;;32.83;18.90;;;;;;;2.33;77.83;101918.16;1664069;83;21142;-42
2020/12/05 09:25:05;;;;;;;32.78;18.62;;;;;;;2.34;77.82;101919.49;1691715;83;21147;-40
2020/12/05 09:27:41;;;;;;;32.45;17.20;;;;;;;2.36;77.85;101920.78;1691706;83;21162;-42
2020/12/05 09:30:11;;;;;;;30.40;16.95;;;;;;;2.37;77.84;101919.48;1667878;83;21169;-42
2020/12/05 09:32:46;;;;;;;27.55;18.27;;;;;;;2.40;77.78;101921.67;1678295;83;21161;-41
2020/12/05 09:35:16;;;;;;;33.10;18.80;;;;;;;2.40;77.79;101921.67;1730771;80;21443;-40
2020/12/05 09:37:44;;;;;;;28.30;18.20;;;;;;;2.39;77.77;101924.72;1745734;80;21163;-42
2020/12/05 09:40:14;;;;;;;29.75;18.85;;;;;;;2.41;77.82;101920.78;1697138;82;21371;-41
2020/12/05 09:42:43;;;;;;;31.48;18.48;;;;;;;2.41;77.77;101911.12;1698229;82;21166;-41
2020/12/05 09:45:12;;;;;;;30.37;19.00;;;;;;;2.42;77.80;101906.72;1697014;82;21196;-40
2020/12/05 09:47:41;;;;;;;30.25;19.50;;;;;;;2.42;77.84;101915.94;1670330;83;21169;-43
2020/12/05 09:50:09;;;;;;;27.50;17.82;;;;;;;2.43;77.83;101924.30;1686632;83;21222;-42
2020/12/05 09:52:37;;;;;;;32.48;18.52;;;;;;;2.42;77.73;101914.63;1746176;80;21169;-39
2020/12/05 09:55:05;;;;;;;29.18;18.92;;;;;;;2.42;77.61;101906.31;1742420;80;21134;-42
2020/12/05 09:57:33;;;;;;;30.65;19.45;;;;;;;2.41;77.60;101907.61;1751196;80;21162;-41
2020/12/05 10:00:03;;;;;;;28.73;19.45;;;;;;;2.40;77.54;101904.56;1729843;80;21185;-43
2020/12/05 10:02:31;;;;;;;29.95;18.90;;;;;;;2.41;77.58;101907.17;1737361;80;21146;-41
2020/12/05 10:04:59;;;;;;;29.00;18.80;;;;;;;2.45;77.50;101915.96;1691916;82;21204;-40
2020/12/05 10:07:26;;;;;;;31.25;21.95;;;;;;;2.45;77.46;101906.73;1743256;80;21145;-41
2020/12/05 10:09:54;;;;;;;33.33;19.05;;;;;;;2.46;77.38;101915.06;1740479;80;21162;-40
2020/12/05 10:12:22;;;;;;;33.18;21.42;;;;;;;2.46;77.35;101910.67;1733051;80;21166;-39
2020/12/05 10:14:50;;;;;;;33.98;20.45;;;;;;;2.46;77.42;101904.08;1747961;80;21145;-40
2020/12/05 10:17:18;;;;;;;31.17;20.00;;;;;;;2.49;77.28;101913.73;1744970;80;22136;-39
2020/12/05 10:19:46;;;;;;;35.70;21.82;;;;;;;2.51;77.23;101916.80;1740282;80;21142;-41
2020/12/05 10:22:15;;;;;;;36.08;21.87;;;;;;;2.51;77.11;101914.61;1694228;82;21119;-40
2020/12/05 10:24:43;;;;;;;33.40;21.07;;;;;;;2.49;77.05;101911.97;1703051;82;21657;-38
2020/12/05 10:27:10;;;;;;;35.85;21.12;;;;;;;2.49;76.98;101910.66;1698494;83;21198;-39
2020/12/05 10:29:38;;;;;;;33.02;20.10;;;;;;;2.48;76.95;101919.89;1741953;80;21307;-40
2020/12/05 10:32:06;;;;;;;37.95;20.50;;;;;;;2.46;76.91;101917.25;1727049;80;21339;-40
2020/12/05 10:34:33;;;;;;;30.25;20.92;;;;;;;2.46;76.84;101921.65;1743050;80;21157;-45
2020/12/05 10:37:01;;;;;;;29.05;20.05;;;;;;;2.47;76.83;101916.80;1746843;80;21792;-44
2020/12/05 10:39:29;;;;;;;34.65;21.35;;;;;;;2.46;76.73;101928.23;1730496;80;21159;-43
2020/12/05 10:41:56;;;;;;;31.65;21.35;;;;;;;2.45;76.87;101915.96;1731699;80;21158;-43
2020/12/05 10:44:24;;;;;;;31.60;20.95;;;;;;;2.45;76.78;101912.88;1740917;80;21133;-43
2020/12/05 10:46:52;;;;;;;30.77;20.10;;;;;;;2.48;76.77;101910.68;1747038;80;21162;-42
2020/12/05 10:49:20;;;;;;;29.70;20.00;;;;;;;2.50;76.65;101906.29;1726373;81;21174;-41
2020/12/05 10:51:47;;;;;;;30.23;18.07;;;;;;;2.51;76.56;101911.98;1730756;80;21169;-40
2020/12/05 10:54:15;;;;;;;28.87;18.77;;;;;;;2.53;76.58;101919.00;1714790;82;21603;-40
2020/12/05 10:56:42;;;;;;;29.20;19.75;;;;;;;2.54;76.42;101926.45;1665768;83;21169;-40
2020/12/05 10:59:10;;;;;;;29.92;18.82;;;;;;;2.52;76.46;101923.84;1734735;80;21167;-43
2020/12/05 11:01:39;;;;;;;33.25;21.48;;;;;;;2.54;76.40;101926.00;1733535;80;21157;-41
2020/12/05 11:04:07;;;;;;;28.75;19.12;;;;;;;2.55;76.37;101925.59;1696840;82;21136;-43
2020/12/05 11:06:35;;;;;;;31.33;19.80;;;;;;;2.55;76.36;101930.41;1722889;81;21154;-39
2020/12/05 11:09:02;;;;;;;33.35;20.40;;;;;;;2.56;76.31;101933.91;1721773;81;21129;-41
2020/12/05 11:11:30;;;;;;;33.08;20.23;;;;;;;2.57;76.27;101923.80;1727267;80;21578;-46
2020/12/05 11:13:58;;;;;;;30.75;19.65;;;;;;;2.55;76.19;101922.51;1736205;80;21157;-44
2020/12/05 11:16:25;;;;;;;28.87;18.25;;;;;;;2.54;76.17;101919.42;1745141;80;21145;-43
2020/12/05 11:18:53;;;;;;;27.87;19.45;;;;;;;2.53;76.14;101924.70;1732327;80;21122;-44
2020/12/05 11:21:21;;;;;;;34.30;21.15;;;;;;;2.50;76.16;101929.99;1740838;80;21513;-42
2020/12/05 11:23:49;;;;;;;27.98;20.90;;;;;;;2.49;76.21;101928.22;1741647;80;21458;-43
2020/12/05 11:26:20;;;;;;;25.55;19.35;;;;;;;2.49;76.22;101936.98;1727961;80;21465;-44
2020/12/05 11:28:49;;;;;;;29.05;18.77;;;;;;;2.49;76.05;101937.44;1740509;80;21154;-43
2020/12/05 11:31:17;;;;;;;25.55;18.57;;;;;;;2.48;75.94;101937.88;1744370;80;21150;-42
2020/12/05 11:33:45;;;;;;;26.70;18.67;;;;;;;2.47;75.96;101943.14;1741485;80;21165;-45
2020/12/05 11:36:12;;;;;;;29.75;19.60;;;;;;;2.46;75.93;101940.08;1725864;81;22011;-41